Yokota Air Base, Japan

10:04 PM JST on March 05, 2015 (GMT +0900)
Yokota Air Base | Change Station
CLOSE
Current Station
Airport
Location: Yokota AB,
Elevation: 456 ft
Nearby Weather Stations

Elev 456 ft 35.75 °N, 139.35 °E | Updated 6 minutes ago

Overcast
Overcast
43 °F
Feels Like 37 °F
N
10
Wind Variable Wind from NNE

Today
High -- | Low -- °F
--% Chance of Precip.
Yesterday
High -- | Low -- °F
Precip. -- in
6:08 AM 5:40 PM
Full, 100% visible
Pressure 30.22 in
Visibility 10.0 miles
Clouds Overcast 7000 ft
Windchill 37 °F
Dew Point 20 °F
Humidity 40%
Rainfall 0.00 in
Snow Depth Not available.
UV 0 out of 12
Pollen Not available.
Air Quality Not available.
Flu Activity Not available.
METAR RJTY 051258Z AUTO 03009KT 10SM OVC070 06/M07 A3020 RMK AO2 SLP234 T00621067

More Conditions Fewer Conditions

Pressure 30.22 in
Visibility 10.0 miles
Clouds Overcast 7000 ft
Windchill 37 °F
Dew Point 20 °F
Humidity 40%
Rainfall 0.00 in
Snow Depth Not available.
UV 0 out of 12
Pollen Not available.
Air Quality Not available.
Flu Activity Not available.
METAR RJTY 051258Z AUTO 03009KT 10SM OVC070 06/M07 A3020 RMK AO2 SLP234 T00621067

More Conditions Fewer Conditions

10-Day Weather Forecast

Almanac

Astronomy

Mar. 05, 2015 Rise Set
Actual Time
Civil Twilight
Nautical Twilight
Astronomical Twilight
Moon
Length of Visible Light
Length of Day
Tomorrow will be .
, % of the Moon is Illuminated

Today's Extremes

Country Highs Country Lows

Community

WunderPhotos

Upload Photos

1,802,749 photos uploaded!

WunderBlogs® & News

Nearby

Air Quality

  Air Quality AQ Index Pollutant
Not available.

Snow Depth

Station Depth Elevation

Earthquake Activity

City Distance Mag. Time & Date
Minimum magnitude displayed is 2.5.

Coastal Water Temperatures

Place Temperature

Nearby Weather Stations